AAL1816 KATL-KDFW
Flight info
| Callsign | AAL1816 |
|---|---|
| Flight time | 2h 4m |
| Altitude | 40000 |
| Route | KAJIN2 STNGA MLU YUYUN BEREE3 |
| Aircraft | B38M/M-SDE1FGHILORVWXY/HB1 |
Departure
| Time | 2026-05-05 15:11 |
|---|---|
| Airport | Hartsfield Jackson Atlanta International Airport (KATL) |
Arrival
| Time | 2026-05-05 17:15 |
|---|---|
| Airport | Dallas Fort Worth International Airport (KDFW) |
| Time | Latitude | Longitude | Altitude | Speed | Heading |
|---|---|---|---|---|---|
| 2026-05-05 14:39 | 33.64263 | -84.44189 | 1009 ft | 0 kts | 270° |
| 2026-05-05 15:00 | 33.64263 | -84.44172 | 1009 ft | 2 kts | 271° |
| 2026-05-05 15:01 | 33.64263 | -84.44152 | 1009 ft | 2 kts | 272° |
| 2026-05-05 15:01 | 33.64261 | -84.44132 | 1009 ft | 2 kts | 280° |
| 2026-05-05 15:01 | 33.64255 | -84.44115 | 1009 ft | 2 kts | 315° |
| 2026-05-05 15:01 | 33.64252 | -84.44112 | 1009 ft | 0 kts | 319° |
| 2026-05-05 15:04 | 33.64253 | -84.44112 | 1009 ft | 1 kts | 320° |
| 2026-05-05 15:04 | 33.64286 | -84.44115 | 1009 ft | 11 kts | 0° |
| 2026-05-05 15:04 | 33.64387 | -84.44118 | 1009 ft | 17 kts | 357° |
| 2026-05-05 15:04 | 33.64490 | -84.44057 | 1009 ft | 19 kts | 60° |
| 2026-05-05 15:05 | 33.64537 | -84.43713 | 1009 ft | 23 kts | 83° |
| 2026-05-05 15:05 | 33.64541 | -84.43509 | 1009 ft | 25 kts | 90° |
| 2026-05-05 15:05 | 33.64541 | -84.43288 | 1009 ft | 28 kts | 88° |
| 2026-05-05 15:06 | 33.64542 | -84.43081 | 1009 ft | 25 kts | 90° |
| 2026-05-05 15:06 | 33.64541 | -84.42861 | 1009 ft | 28 kts | 90° |
| 2026-05-05 15:06 | 33.64542 | -84.42622 | 1009 ft | 30 kts | 90° |
| 2026-05-05 15:06 | 33.64542 | -84.42442 | 1008 ft | 22 kts | 90° |
| 2026-05-05 15:07 | 33.64542 | -84.42248 | 1008 ft | 24 kts | 90° |
| 2026-05-05 15:07 | 33.64543 | -84.42036 | 1008 ft | 27 kts | 90° |
| 2026-05-05 15:07 | 33.64542 | -84.41807 | 1009 ft | 28 kts | 90° |
| 2026-05-05 15:07 | 33.64543 | -84.41586 | 1009 ft | 19 kts | 90° |
| 2026-05-05 15:08 | 33.64543 | -84.41421 | 1009 ft | 21 kts | 90° |
| 2026-05-05 15:08 | 33.64543 | -84.41234 | 1009 ft | 24 kts | 90° |
| 2026-05-05 15:08 | 33.64542 | -84.41029 | 1009 ft | 26 kts | 90° |
| 2026-05-05 15:08 | 33.64548 | -84.40822 | 1008 ft | 17 kts | 73° |
| 2026-05-05 15:09 | 33.64570 | -84.40675 | 1008 ft | 19 kts | 90° |
| 2026-05-05 15:09 | 33.64607 | -84.40570 | 1007 ft | 13 kts | 13° |
| 2026-05-05 15:09 | 33.64666 | -84.40568 | 1006 ft | 2 kts | 353° |
| 2026-05-05 15:09 | 33.64679 | -84.40587 | 1006 ft | 5 kts | 290° |
| 2026-05-05 15:10 | 33.64680 | -84.40770 | 1007 ft | 51 kts | 270° |
| 2026-05-05 15:10 | 33.64680 | -84.41439 | 1012 ft | 108 kts | 270° |
| 2026-05-05 15:10 | 33.64678 | -84.42536 | 1007 ft | 153 kts | 270° |
| 2026-05-05 15:10 | 33.64679 | -84.43881 | 1319 ft | 164 kts | 268° |
| 2026-05-05 15:11 | 33.64675 | -84.45327 | 1851 ft | 177 kts | 273° |
| 2026-05-05 15:11 | 33.64894 | -84.46805 | 2548 ft | 188 kts | 280° |
| 2026-05-05 15:11 | 33.65180 | -84.48411 | 3244 ft | 210 kts | 279° |
| 2026-05-05 15:11 | 33.65511 | -84.50232 | 4091 ft | 231 kts | 278° |
| 2026-05-05 15:12 | 33.65867 | -84.52165 | 4836 ft | 251 kts | 278° |
| 2026-05-05 15:12 | 33.66256 | -84.54281 | 5495 ft | 267 kts | 278° |
| 2026-05-05 15:12 | 33.66664 | -84.56485 | 6517 ft | 268 kts | 279° |
| 2026-05-05 15:12 | 33.67058 | -84.58660 | 7412 ft | 271 kts | 278° |
| 2026-05-05 15:13 | 33.67442 | -84.60925 | 8342 ft | 276 kts | 279° |
| 2026-05-05 15:13 | 33.67823 | -84.63166 | 9252 ft | 279 kts | 279° |
| 2026-05-05 15:13 | 33.68213 | -84.65459 | 10176 ft | 283 kts | 279° |
| 2026-05-05 15:13 | 33.68618 | -84.67845 | 10689 ft | 302 kts | 280° |
| 2026-05-05 15:14 | 33.69048 | -84.70377 | 11232 ft | 317 kts | 280° |
| 2026-05-05 15:14 | 33.69496 | -84.73016 | 11940 ft | 325 kts | 280° |
| 2026-05-05 15:14 | 33.69725 | -84.75705 | 12884 ft | 326 kts | 264° |
| 2026-05-05 15:14 | 33.69150 | -84.78344 | 13798 ft | 330 kts | 250° |
| 2026-05-05 15:15 | 33.68340 | -84.80948 | 14596 ft | 335 kts | 251° |
| 2026-05-05 15:15 | 33.67518 | -84.83575 | 15499 ft | 337 kts | 251° |
| 2026-05-05 15:15 | 33.66680 | -84.86217 | 16402 ft | 340 kts | 251° |
| 2026-05-05 15:15 | 33.65829 | -84.88878 | 17255 ft | 343 kts | 251° |
| 2026-05-05 15:16 | 33.64967 | -84.91561 | 18114 ft | 346 kts | 251° |
| 2026-05-05 15:16 | 33.64097 | -84.94264 | 18869 ft | 349 kts | 251° |
| 2026-05-05 15:16 | 33.63221 | -84.96980 | 19591 ft | 351 kts | 251° |
| 2026-05-05 15:16 | 33.62337 | -84.99719 | 20320 ft | 353 kts | 252° |
| 2026-05-05 15:17 | 33.61447 | -85.02472 | 21041 ft | 355 kts | 252° |
| 2026-05-05 15:17 | 33.60553 | -85.05238 | 21744 ft | 357 kts | 252° |
| 2026-05-05 15:17 | 33.59650 | -85.08026 | 22427 ft | 360 kts | 252° |
| 2026-05-05 15:17 | 33.58743 | -85.10826 | 23105 ft | 362 kts | 252° |
| 2026-05-05 15:18 | 33.57828 | -85.13646 | 23766 ft | 364 kts | 252° |
| 2026-05-05 15:18 | 33.56904 | -85.16493 | 24310 ft | 367 kts | 253° |
| 2026-05-05 15:18 | 33.55975 | -85.19353 | 24830 ft | 369 kts | 253° |
| 2026-05-05 15:18 | 33.55057 | -85.22238 | 25343 ft | 370 kts | 257° |
| 2026-05-05 15:19 | 33.54464 | -85.25227 | 25835 ft | 370 kts | 262° |
| 2026-05-05 15:19 | 33.53903 | -85.28250 | 26333 ft | 373 kts | 262° |
| 2026-05-05 15:19 | 33.53339 | -85.31292 | 26823 ft | 375 kts | 262° |
| 2026-05-05 15:19 | 33.52772 | -85.34355 | 27305 ft | 378 kts | 262° |
| 2026-05-05 15:20 | 33.52201 | -85.37439 | 27776 ft | 381 kts | 262° |
| 2026-05-05 15:20 | 33.51624 | -85.40551 | 28239 ft | 383 kts | 262° |
| 2026-05-05 15:20 | 33.51044 | -85.43672 | 28703 ft | 386 kts | 263° |
| 2026-05-05 15:20 | 33.50458 | -85.46823 | 29155 ft | 388 kts | 263° |
| 2026-05-05 15:21 | 33.49867 | -85.49993 | 29602 ft | 391 kts | 263° |
| 2026-05-05 15:21 | 33.49272 | -85.53185 | 30034 ft | 394 kts | 263° |
| 2026-05-05 15:21 | 33.48672 | -85.56398 | 30425 ft | 396 kts | 263° |
| 2026-05-05 15:21 | 33.48070 | -85.59620 | 30844 ft | 397 kts | 263° |
| 2026-05-05 15:22 | 33.47475 | -85.62793 | 31296 ft | 396 kts | 264° |
| 2026-05-05 15:22 | 33.46872 | -85.66009 | 31759 ft | 396 kts | 264° |
| 2026-05-05 15:22 | 33.46267 | -85.69226 | 32218 ft | 395 kts | 265° |
| 2026-05-05 15:22 | 33.45664 | -85.72431 | 32688 ft | 395 kts | 265° |
| 2026-05-05 15:23 | 33.45062 | -85.75626 | 33238 ft | 392 kts | 265° |
| 2026-05-05 15:23 | 33.44464 | -85.78788 | 33875 ft | 387 kts | 266° |
| 2026-05-05 15:23 | 33.43874 | -85.81910 | 34470 ft | 382 kts | 266° |
| 2026-05-05 15:23 | 33.43289 | -85.84994 | 35032 ft | 378 kts | 266° |
| 2026-05-05 15:24 | 33.42711 | -85.88042 | 35562 ft | 373 kts | 266° |
| 2026-05-05 15:24 | 33.42139 | -85.91058 | 36048 ft | 370 kts | 266° |
| 2026-05-05 15:24 | 33.41571 | -85.94044 | 36493 ft | 367 kts | 266° |
| 2026-05-05 15:24 | 33.41005 | -85.97015 | 36908 ft | 365 kts | 266° |
| 2026-05-05 15:25 | 33.40442 | -85.99968 | 37311 ft | 362 kts | 267° |
| 2026-05-05 15:25 | 33.39882 | -86.02901 | 37710 ft | 360 kts | 267° |
| 2026-05-05 15:25 | 33.39325 | -86.05814 | 38082 ft | 358 kts | 267° |
| 2026-05-05 15:25 | 33.38771 | -86.08708 | 38458 ft | 356 kts | 267° |
| 2026-05-05 15:26 | 33.38218 | -86.11593 | 38798 ft | 354 kts | 267° |
| 2026-05-05 15:26 | 33.37668 | -86.14458 | 39069 ft | 353 kts | 267° |
| 2026-05-05 15:26 | 33.37119 | -86.17310 | 39290 ft | 352 kts | 267° |
| 2026-05-05 15:26 | 33.36569 | -86.20168 | 39499 ft | 352 kts | 267° |
| 2026-05-05 15:27 | 33.36020 | -86.23018 | 39692 ft | 352 kts | 266° |
| 2026-05-05 15:27 | 33.35470 | -86.25871 | 39896 ft | 352 kts | 266° |
| 2026-05-05 15:27 | 33.34918 | -86.28723 | 40045 ft | 352 kts | 266° |
| 2026-05-05 15:28 | 33.33803 | -86.34488 | 40080 ft | 359 kts | 266° |
| 2026-05-05 15:28 | 33.32674 | -86.40299 | 40091 ft | 358 kts | 266° |
| 2026-05-05 15:29 | 33.31545 | -86.46101 | 40077 ft | 358 kts | 266° |
| 2026-05-05 15:29 | 33.30414 | -86.51897 | 40075 ft | 358 kts | 266° |
| 2026-05-05 15:30 | 33.29280 | -86.57691 | 40060 ft | 358 kts | 266° |
| 2026-05-05 15:30 | 33.28146 | -86.63475 | 40059 ft | 357 kts | 266° |
| 2026-05-05 15:31 | 33.27016 | -86.69216 | 40073 ft | 357 kts | 266° |
| 2026-05-05 15:31 | 33.25877 | -86.74993 | 40072 ft | 357 kts | 266° |
| 2026-05-05 15:32 | 33.24735 | -86.80769 | 40069 ft | 357 kts | 266° |
| 2026-05-05 15:32 | 33.23591 | -86.86539 | 40072 ft | 357 kts | 266° |
| 2026-05-05 15:33 | 33.22443 | -86.92314 | 40066 ft | 357 kts | 266° |
| 2026-05-05 15:33 | 33.21294 | -86.98085 | 40060 ft | 357 kts | 266° |
| 2026-05-05 15:34 | 33.20141 | -87.03854 | 40057 ft | 357 kts | 266° |
| 2026-05-05 15:34 | 33.18986 | -87.09620 | 40049 ft | 357 kts | 266° |
| 2026-05-05 15:35 | 33.17830 | -87.15378 | 40039 ft | 357 kts | 266° |
| 2026-05-05 15:35 | 33.16671 | -87.21136 | 40024 ft | 357 kts | 266° |
| 2026-05-05 15:36 | 33.15510 | -87.26891 | 40013 ft | 357 kts | 265° |
| 2026-05-05 15:36 | 33.14543 | -87.31676 | 40002 ft | 357 kts | 265° |
| 2026-05-05 15:37 | 33.13379 | -87.37425 | 40001 ft | 357 kts | 265° |
| 2026-05-05 15:37 | 33.12211 | -87.43176 | 40000 ft | 356 kts | 265° |
| 2026-05-05 15:38 | 33.11480 | -87.48932 | 40003 ft | 350 kts | 271° |
| 2026-05-05 15:38 | 33.10855 | -87.54692 | 40004 ft | 350 kts | 270° |
| 2026-05-05 15:39 | 33.10206 | -87.60452 | 40002 ft | 350 kts | 270° |
| 2026-05-05 15:39 | 33.09551 | -87.66207 | 40003 ft | 350 kts | 270° |
| 2026-05-05 15:40 | 33.08894 | -87.71960 | 40000 ft | 350 kts | 270° |
| 2026-05-05 15:40 | 33.08233 | -87.77713 | 39999 ft | 350 kts | 270° |
| 2026-05-05 15:41 | 33.07570 | -87.83462 | 40000 ft | 350 kts | 270° |
| 2026-05-05 15:41 | 33.06906 | -87.89203 | 40003 ft | 350 kts | 270° |
| 2026-05-05 15:42 | 33.06242 | -87.94910 | 40001 ft | 350 kts | 270° |
| 2026-05-05 15:42 | 33.05572 | -88.00652 | 40007 ft | 350 kts | 270° |
| 2026-05-05 15:43 | 33.04900 | -88.06390 | 40000 ft | 349 kts | 270° |
| 2026-05-05 15:43 | 33.04225 | -88.12125 | 40004 ft | 349 kts | 270° |
| 2026-05-05 15:44 | 33.03548 | -88.17860 | 39999 ft | 349 kts | 270° |
| 2026-05-05 15:44 | 33.02868 | -88.23592 | 40000 ft | 349 kts | 270° |
| 2026-05-05 15:45 | 33.02186 | -88.29317 | 40007 ft | 349 kts | 270° |
| 2026-05-05 15:45 | 33.01502 | -88.35041 | 39996 ft | 349 kts | 270° |
| 2026-05-05 15:46 | 33.00816 | -88.40758 | 40002 ft | 349 kts | 269° |
| 2026-05-05 15:46 | 33.00126 | -88.46479 | 39988 ft | 349 kts | 269° |
| 2026-05-05 15:47 | 32.99434 | -88.52199 | 39993 ft | 349 kts | 269° |
| 2026-05-05 15:47 | 32.98739 | -88.57920 | 39988 ft | 349 kts | 269° |
| 2026-05-05 15:48 | 32.98042 | -88.63639 | 39974 ft | 349 kts | 269° |
| 2026-05-05 15:48 | 32.97342 | -88.69353 | 39974 ft | 349 kts | 269° |
| 2026-05-05 15:49 | 32.96640 | -88.75065 | 39979 ft | 349 kts | 269° |
| 2026-05-05 15:49 | 32.95936 | -88.80777 | 39985 ft | 349 kts | 269° |
| 2026-05-05 15:50 | 32.95228 | -88.86495 | 39985 ft | 349 kts | 269° |
| 2026-05-05 15:50 | 32.94518 | -88.92205 | 39978 ft | 349 kts | 269° |
| 2026-05-05 15:51 | 32.93806 | -88.97914 | 39959 ft | 349 kts | 269° |
| 2026-05-05 15:51 | 32.93094 | -89.03594 | 39963 ft | 349 kts | 269° |
| 2026-05-05 15:52 | 32.92376 | -89.09308 | 39981 ft | 349 kts | 269° |
| 2026-05-05 15:52 | 32.91656 | -89.15014 | 39986 ft | 349 kts | 269° |
| 2026-05-05 15:53 | 32.90931 | -89.20733 | 39980 ft | 349 kts | 269° |
| 2026-05-05 15:53 | 32.90204 | -89.26451 | 39964 ft | 350 kts | 269° |
| 2026-05-05 15:54 | 32.89473 | -89.32179 | 39943 ft | 350 kts | 269° |
| 2026-05-05 15:54 | 32.88739 | -89.37906 | 39926 ft | 350 kts | 269° |
| 2026-05-05 15:55 | 32.88003 | -89.43629 | 39906 ft | 350 kts | 269° |
| 2026-05-05 15:55 | 32.87265 | -89.49353 | 39887 ft | 350 kts | 268° |
| 2026-05-05 15:56 | 32.86521 | -89.55089 | 39876 ft | 351 kts | 268° |
| 2026-05-05 15:56 | 32.85776 | -89.60826 | 39884 ft | 351 kts | 268° |
| 2026-05-05 15:57 | 32.85028 | -89.66558 | 39890 ft | 351 kts | 268° |
| 2026-05-05 15:57 | 32.84276 | -89.72296 | 39898 ft | 351 kts | 268° |
| 2026-05-05 15:58 | 32.83522 | -89.78035 | 39906 ft | 351 kts | 268° |
| 2026-05-05 15:58 | 32.82765 | -89.83772 | 39911 ft | 351 kts | 268° |
| 2026-05-05 15:59 | 32.82010 | -89.89469 | 39923 ft | 351 kts | 268° |
| 2026-05-05 15:59 | 32.81247 | -89.95210 | 39933 ft | 352 kts | 268° |
| 2026-05-05 16:00 | 32.80483 | -90.00947 | 39933 ft | 352 kts | 268° |
| 2026-05-05 16:00 | 32.79714 | -90.06689 | 39933 ft | 352 kts | 268° |
| 2026-05-05 16:01 | 32.78943 | -90.12430 | 39943 ft | 352 kts | 268° |
| 2026-05-05 16:01 | 32.78169 | -90.18164 | 39957 ft | 351 kts | 268° |
| 2026-05-05 16:02 | 32.77393 | -90.23905 | 39944 ft | 352 kts | 268° |
| 2026-05-05 16:02 | 32.76614 | -90.29646 | 39948 ft | 352 kts | 268° |
| 2026-05-05 16:03 | 32.75831 | -90.35391 | 39943 ft | 352 kts | 268° |
| 2026-05-05 16:03 | 32.75045 | -90.41135 | 39949 ft | 353 kts | 268° |
| 2026-05-05 16:04 | 32.74256 | -90.46887 | 39940 ft | 353 kts | 268° |
| 2026-05-05 16:04 | 32.73463 | -90.52645 | 39950 ft | 353 kts | 268° |
| 2026-05-05 16:05 | 32.72668 | -90.58405 | 39947 ft | 354 kts | 268° |
| 2026-05-05 16:05 | 32.71870 | -90.64162 | 39948 ft | 354 kts | 268° |
| 2026-05-05 16:06 | 32.71067 | -90.69928 | 39944 ft | 354 kts | 267° |
| 2026-05-05 16:06 | 32.70262 | -90.75697 | 39953 ft | 354 kts | 267° |
| 2026-05-05 16:07 | 32.69452 | -90.81474 | 39949 ft | 355 kts | 267° |
| 2026-05-05 16:07 | 32.68640 | -90.87253 | 39963 ft | 355 kts | 267° |
| 2026-05-05 16:08 | 32.67825 | -90.93026 | 39962 ft | 355 kts | 267° |
| 2026-05-05 16:08 | 32.67007 | -90.98810 | 39972 ft | 355 kts | 267° |
| 2026-05-05 16:09 | 32.66185 | -91.04598 | 39972 ft | 356 kts | 267° |
| 2026-05-05 16:09 | 32.65360 | -91.10387 | 39984 ft | 356 kts | 267° |
| 2026-05-05 16:10 | 32.64531 | -91.16180 | 39980 ft | 356 kts | 267° |
| 2026-05-05 16:10 | 32.63705 | -91.21937 | 39983 ft | 356 kts | 267° |
| 2026-05-05 16:11 | 32.62870 | -91.27737 | 39979 ft | 357 kts | 267° |
| 2026-05-05 16:12 | 32.61192 | -91.39337 | 39967 ft | 357 kts | 267° |
| 2026-05-05 16:13 | 32.59075 | -91.53852 | 39942 ft | 358 kts | 267° |
| 2026-05-05 16:13 | 32.58224 | -91.59662 | 39926 ft | 358 kts | 267° |
| 2026-05-05 16:14 | 32.56512 | -91.71290 | 39923 ft | 358 kts | 267° |
| 2026-05-05 16:15 | 32.54790 | -91.82918 | 39917 ft | 358 kts | 267° |
| 2026-05-05 16:16 | 32.53057 | -91.94543 | 39913 ft | 358 kts | 267° |
| 2026-05-05 16:17 | 32.51776 | -92.03263 | 39915 ft | 355 kts | 271° |
| 2026-05-05 16:18 | 32.51203 | -92.11943 | 39917 ft | 354 kts | 271° |
| 2026-05-05 16:19 | 32.50566 | -92.20664 | 39912 ft | 354 kts | 271° |
| 2026-05-05 16:19 | 32.49919 | -92.29385 | 39908 ft | 355 kts | 271° |
| 2026-05-05 16:20 | 32.49045 | -92.41026 | 39894 ft | 355 kts | 271° |
| 2026-05-05 16:22 | 32.47938 | -92.55571 | 39897 ft | 355 kts | 271° |
| 2026-05-05 16:23 | 32.47040 | -92.67208 | 39899 ft | 355 kts | 271° |
| 2026-05-05 16:23 | 32.46358 | -92.75944 | 39895 ft | 355 kts | 271° |
| 2026-05-05 16:24 | 32.45904 | -92.81731 | 39891 ft | 355 kts | 271° |
| 2026-05-05 16:25 | 32.45214 | -92.90475 | 39887 ft | 355 kts | 271° |
| 2026-05-05 16:25 | 32.44549 | -92.99214 | 39879 ft | 355 kts | 271° |
| 2026-05-05 16:26 | 32.43729 | -93.09888 | 39880 ft | 356 kts | 271° |
| 2026-05-05 16:27 | 32.43276 | -93.15720 | 39876 ft | 356 kts | 271° |
| 2026-05-05 16:27 | 32.42821 | -93.21556 | 39876 ft | 356 kts | 271° |
| 2026-05-05 16:28 | 32.42363 | -93.27394 | 39879 ft | 356 kts | 271° |
| 2026-05-05 16:28 | 32.41902 | -93.33231 | 39878 ft | 356 kts | 271° |
| 2026-05-05 16:29 | 32.41438 | -93.39072 | 39869 ft | 356 kts | 271° |
| 2026-05-05 16:29 | 32.40974 | -93.44889 | 39853 ft | 357 kts | 271° |
| 2026-05-05 16:30 | 32.40504 | -93.50731 | 39853 ft | 357 kts | 271° |
| 2026-05-05 16:30 | 32.40032 | -93.56570 | 39858 ft | 357 kts | 271° |
| 2026-05-05 16:31 | 32.39557 | -93.62413 | 39849 ft | 357 kts | 271° |
| 2026-05-05 16:31 | 32.39083 | -93.68216 | 39847 ft | 357 kts | 271° |
| 2026-05-05 16:32 | 32.38603 | -93.74048 | 39863 ft | 356 kts | 271° |
| 2026-05-05 16:32 | 32.38120 | -93.79885 | 39859 ft | 356 kts | 270° |
| 2026-05-05 16:33 | 32.37634 | -93.85725 | 39857 ft | 357 kts | 270° |
| 2026-05-05 16:33 | 32.37146 | -93.91568 | 39859 ft | 357 kts | 270° |
| 2026-05-05 16:34 | 32.36654 | -93.97414 | 39853 ft | 357 kts | 270° |
| 2026-05-05 16:34 | 32.36160 | -94.03261 | 39851 ft | 357 kts | 270° |
| 2026-05-05 16:35 | 32.35662 | -94.09106 | 39848 ft | 357 kts | 270° |
| 2026-05-05 16:35 | 32.35163 | -94.14944 | 39843 ft | 357 kts | 270° |
| 2026-05-05 16:36 | 32.34661 | -94.20786 | 39842 ft | 357 kts | 270° |
| 2026-05-05 16:36 | 32.34155 | -94.26632 | 39846 ft | 357 kts | 270° |
| 2026-05-05 16:37 | 32.33654 | -94.32396 | 39841 ft | 357 kts | 270° |
| 2026-05-05 16:37 | 32.33143 | -94.38242 | 39840 ft | 357 kts | 270° |
| 2026-05-05 16:38 | 32.32630 | -94.44086 | 39840 ft | 357 kts | 270° |
| 2026-05-05 16:38 | 32.32114 | -94.49922 | 39831 ft | 357 kts | 270° |
| 2026-05-05 16:39 | 32.31595 | -94.55764 | 39827 ft | 357 kts | 270° |
| 2026-05-05 16:39 | 32.31074 | -94.61603 | 39834 ft | 357 kts | 270° |
| 2026-05-05 16:40 | 32.30552 | -94.67412 | 39835 ft | 357 kts | 270° |
| 2026-05-05 16:40 | 32.30026 | -94.73250 | 39838 ft | 358 kts | 270° |
| 2026-05-05 16:41 | 32.29496 | -94.79089 | 39829 ft | 358 kts | 270° |
| 2026-05-05 16:41 | 32.28964 | -94.84933 | 39842 ft | 358 kts | 270° |
| 2026-05-05 16:42 | 32.28430 | -94.90779 | 39840 ft | 358 kts | 270° |
| 2026-05-05 16:42 | 32.27893 | -94.96626 | 39850 ft | 358 kts | 270° |
| 2026-05-05 16:43 | 32.27309 | -95.02475 | 39838 ft | 359 kts | 269° |
| 2026-05-05 16:43 | 32.26688 | -95.08322 | 39834 ft | 359 kts | 270° |
| 2026-05-05 16:44 | 32.26068 | -95.14170 | 39828 ft | 359 kts | 270° |
| 2026-05-05 16:44 | 32.25446 | -95.20022 | 39830 ft | 359 kts | 270° |
| 2026-05-05 16:45 | 32.25305 | -95.25836 | 39839 ft | 353 kts | 276° |
| 2026-05-05 16:45 | 32.25431 | -95.31636 | 39842 ft | 353 kts | 276° |
| 2026-05-05 16:46 | 32.25577 | -95.37393 | 39682 ft | 345 kts | 277° |
| 2026-05-05 16:46 | 32.25650 | -95.40213 | 39495 ft | 343 kts | 277° |
| 2026-05-05 16:46 | 32.25722 | -95.43033 | 39313 ft | 343 kts | 277° |
| 2026-05-05 16:47 | 32.25793 | -95.45843 | 39132 ft | 342 kts | 277° |
| 2026-05-05 16:47 | 32.25864 | -95.48655 | 38944 ft | 342 kts | 277° |
| 2026-05-05 16:47 | 32.25935 | -95.51460 | 38768 ft | 342 kts | 277° |
| 2026-05-05 16:47 | 32.26005 | -95.54279 | 38593 ft | 342 kts | 277° |
| 2026-05-05 16:48 | 32.26074 | -95.57092 | 38391 ft | 342 kts | 277° |
| 2026-05-05 16:48 | 32.26142 | -95.59901 | 38179 ft | 343 kts | 277° |
| 2026-05-05 16:48 | 32.26209 | -95.62698 | 37751 ft | 338 kts | 277° |
| 2026-05-05 16:48 | 32.26276 | -95.65480 | 36966 ft | 340 kts | 277° |
| 2026-05-05 16:49 | 32.26342 | -95.68287 | 36193 ft | 343 kts | 277° |
| 2026-05-05 16:49 | 32.26409 | -95.71110 | 35464 ft | 345 kts | 277° |
| 2026-05-05 16:49 | 32.26474 | -95.73949 | 34697 ft | 348 kts | 276° |
| 2026-05-05 16:49 | 32.26538 | -95.76833 | 33851 ft | 354 kts | 276° |
| 2026-05-05 16:50 | 32.26602 | -95.79750 | 33002 ft | 356 kts | 276° |
| 2026-05-05 16:50 | 32.26667 | -95.82678 | 32228 ft | 357 kts | 276° |
| 2026-05-05 16:50 | 32.26730 | -95.85617 | 31431 ft | 359 kts | 276° |
| 2026-05-05 16:50 | 32.26794 | -95.88570 | 30726 ft | 359 kts | 276° |
| 2026-05-05 16:51 | 32.26856 | -95.91503 | 30135 ft | 356 kts | 276° |
| 2026-05-05 16:51 | 32.26920 | -95.94421 | 29435 ft | 354 kts | 276° |
| 2026-05-05 16:51 | 32.26983 | -95.97296 | 28861 ft | 356 kts | 276° |
| 2026-05-05 16:51 | 32.27048 | -96.00237 | 28351 ft | 359 kts | 276° |
| 2026-05-05 16:52 | 32.27112 | -96.03231 | 27836 ft | 359 kts | 275° |
| 2026-05-05 16:52 | 32.27175 | -96.06174 | 27311 ft | 358 kts | 275° |
| 2026-05-05 16:52 | 32.27236 | -96.09075 | 26785 ft | 357 kts | 275° |
| 2026-05-05 16:52 | 32.27297 | -96.12003 | 26254 ft | 356 kts | 275° |
| 2026-05-05 16:53 | 32.27357 | -96.14921 | 25721 ft | 355 kts | 275° |
| 2026-05-05 16:53 | 32.27417 | -96.17833 | 25191 ft | 354 kts | 274° |
| 2026-05-05 16:53 | 32.27475 | -96.20735 | 24658 ft | 353 kts | 274° |
| 2026-05-05 16:53 | 32.27534 | -96.23639 | 24137 ft | 353 kts | 274° |
| 2026-05-05 16:54 | 32.27591 | -96.26536 | 23602 ft | 353 kts | 274° |
| 2026-05-05 16:54 | 32.27677 | -96.29428 | 22982 ft | 351 kts | 278° |
| 2026-05-05 16:54 | 32.28340 | -96.32181 | 22278 ft | 350 kts | 295° |
| 2026-05-05 16:54 | 32.29735 | -96.34520 | 21823 ft | 349 kts | 309° |
| 2026-05-05 16:55 | 32.31404 | -96.36599 | 21392 ft | 350 kts | 310° |
| 2026-05-05 16:55 | 32.33109 | -96.38655 | 20929 ft | 350 kts | 311° |
| 2026-05-05 16:55 | 32.34784 | -96.40631 | 20484 ft | 349 kts | 311° |
| 2026-05-05 16:55 | 32.36511 | -96.42646 | 20021 ft | 348 kts | 312° |
| 2026-05-05 16:56 | 32.38237 | -96.44645 | 19567 ft | 347 kts | 312° |
| 2026-05-05 16:56 | 32.39962 | -96.46634 | 19105 ft | 345 kts | 312° |
| 2026-05-05 16:56 | 32.41675 | -96.48608 | 18447 ft | 341 kts | 312° |
| 2026-05-05 16:56 | 32.43360 | -96.50549 | 17718 ft | 335 kts | 312° |
| 2026-05-05 16:57 | 32.45012 | -96.52452 | 17396 ft | 326 kts | 312° |
| 2026-05-05 16:57 | 32.46610 | -96.54295 | 17235 ft | 315 kts | 312° |
| 2026-05-05 16:57 | 32.48156 | -96.56077 | 17064 ft | 305 kts | 313° |
| 2026-05-05 16:57 | 32.49682 | -96.57824 | 16652 ft | 306 kts | 313° |
| 2026-05-05 16:58 | 32.51224 | -96.59590 | 16288 ft | 310 kts | 313° |
| 2026-05-05 16:58 | 32.52773 | -96.61366 | 15932 ft | 310 kts | 313° |
| 2026-05-05 16:58 | 32.54319 | -96.63139 | 15563 ft | 309 kts | 313° |
| 2026-05-05 16:58 | 32.55861 | -96.64908 | 15188 ft | 307 kts | 313° |
| 2026-05-05 16:59 | 32.57393 | -96.66643 | 14819 ft | 302 kts | 313° |
| 2026-05-05 16:59 | 32.58878 | -96.68315 | 14527 ft | 287 kts | 313° |
| 2026-05-05 16:59 | 32.60289 | -96.69906 | 14234 ft | 273 kts | 313° |
| 2026-05-05 16:59 | 32.61650 | -96.71442 | 13953 ft | 269 kts | 313° |
| 2026-05-05 17:00 | 32.63002 | -96.72969 | 13659 ft | 267 kts | 313° |
| 2026-05-05 17:00 | 32.64343 | -96.74483 | 13332 ft | 265 kts | 313° |
| 2026-05-05 17:00 | 32.65676 | -96.75990 | 13032 ft | 263 kts | 313° |
| 2026-05-05 17:00 | 32.66989 | -96.77479 | 12903 ft | 262 kts | 313° |
| 2026-05-05 17:01 | 32.68312 | -96.78980 | 12803 ft | 264 kts | 313° |
| 2026-05-05 17:01 | 32.69641 | -96.80488 | 12692 ft | 264 kts | 313° |
| 2026-05-05 17:01 | 32.70950 | -96.81972 | 12591 ft | 264 kts | 313° |
| 2026-05-05 17:01 | 32.72268 | -96.83468 | 12479 ft | 258 kts | 313° |
| 2026-05-05 17:02 | 32.73540 | -96.84913 | 12369 ft | 248 kts | 313° |
| 2026-05-05 17:02 | 32.74765 | -96.86304 | 12273 ft | 239 kts | 313° |
| 2026-05-05 17:02 | 32.75943 | -96.87643 | 12168 ft | 230 kts | 313° |
| 2026-05-05 17:02 | 32.77093 | -96.88951 | 12064 ft | 229 kts | 313° |
| 2026-05-05 17:03 | 32.78236 | -96.90247 | 11828 ft | 228 kts | 314° |
| 2026-05-05 17:03 | 32.79615 | -96.91206 | 11507 ft | 237 kts | 339° |
| 2026-05-05 17:03 | 32.81280 | -96.91401 | 11155 ft | 245 kts | 353° |
| 2026-05-05 17:03 | 32.82986 | -96.91424 | 10830 ft | 246 kts | 353° |
| 2026-05-05 17:04 | 32.84692 | -96.91433 | 10546 ft | 244 kts | 354° |
| 2026-05-05 17:04 | 32.86387 | -96.91435 | 10101 ft | 244 kts | 354° |
| 2026-05-05 17:04 | 32.88084 | -96.91430 | 9663 ft | 244 kts | 354° |
| 2026-05-05 17:04 | 32.89788 | -96.91425 | 9186 ft | 244 kts | 354° |
| 2026-05-05 17:05 | 32.91481 | -96.91417 | 8747 ft | 243 kts | 354° |
| 2026-05-05 17:05 | 32.93169 | -96.91408 | 8302 ft | 242 kts | 354° |
| 2026-05-05 17:05 | 32.94859 | -96.91398 | 7793 ft | 243 kts | 355° |
| 2026-05-05 17:05 | 32.96542 | -96.91387 | 7315 ft | 240 kts | 354° |
| 2026-05-05 17:06 | 32.98228 | -96.91377 | 6702 ft | 243 kts | 355° |
| 2026-05-05 17:06 | 32.99918 | -96.91366 | 6136 ft | 243 kts | 355° |
| 2026-05-05 17:06 | 33.01611 | -96.91356 | 5565 ft | 245 kts | 355° |
| 2026-05-05 17:06 | 33.03305 | -96.91351 | 5505 ft | 243 kts | 354° |
| 2026-05-05 17:07 | 33.05012 | -96.91346 | 5321 ft | 244 kts | 355° |
| 2026-05-05 17:07 | 33.06711 | -96.91353 | 4752 ft | 245 kts | 355° |
| 2026-05-05 17:07 | 33.08393 | -96.91364 | 4152 ft | 245 kts | 355° |
| 2026-05-05 17:07 | 33.10093 | -96.91366 | 3770 ft | 245 kts | 355° |
| 2026-05-05 17:08 | 33.11806 | -96.91396 | 3406 ft | 246 kts | 349° |
| 2026-05-05 17:08 | 33.13319 | -96.92124 | 3008 ft | 226 kts | 308° |
| 2026-05-05 17:08 | 33.13978 | -96.93641 | 2975 ft | 202 kts | 273° |
| 2026-05-05 17:08 | 33.14161 | -96.95312 | 2997 ft | 204 kts | 269° |
| 2026-05-05 17:09 | 33.14320 | -96.97002 | 3014 ft | 206 kts | 268° |
| 2026-05-05 17:09 | 33.14490 | -96.98703 | 3081 ft | 205 kts | 268° |
| 2026-05-05 17:09 | 33.14238 | -97.00278 | 2993 ft | 190 kts | 232° |
| 2026-05-05 17:09 | 33.13207 | -97.01205 | 2977 ft | 188 kts | 208° |
| 2026-05-05 17:10 | 33.12037 | -97.01923 | 2988 ft | 189 kts | 208° |
| 2026-05-05 17:10 | 33.10796 | -97.02425 | 2992 ft | 190 kts | 192° |
| 2026-05-05 17:10 | 33.09459 | -97.02523 | 3001 ft | 194 kts | 185° |
| 2026-05-05 17:10 | 33.08113 | -97.02516 | 3003 ft | 193 kts | 185° |
| 2026-05-05 17:11 | 33.06779 | -97.02518 | 2993 ft | 187 kts | 185° |
| 2026-05-05 17:11 | 33.05544 | -97.02523 | 2974 ft | 176 kts | 185° |
| 2026-05-05 17:11 | 33.04306 | -97.02529 | 2812 ft | 175 kts | 185° |
| 2026-05-05 17:11 | 33.03102 | -97.02536 | 2621 ft | 175 kts | 184° |
| 2026-05-05 17:12 | 33.01895 | -97.02542 | 2459 ft | 174 kts | 183° |
| 2026-05-05 17:12 | 33.00673 | -97.02551 | 2259 ft | 177 kts | 182° |
| 2026-05-05 17:12 | 32.99449 | -97.02556 | 1982 ft | 174 kts | 182° |
| 2026-05-05 17:12 | 32.98305 | -97.02562 | 1753 ft | 156 kts | 181° |
| 2026-05-05 17:13 | 32.97279 | -97.02565 | 1549 ft | 139 kts | 181° |
| 2026-05-05 17:13 | 32.96354 | -97.02572 | 1391 ft | 130 kts | 181° |
| 2026-05-05 17:13 | 32.95446 | -97.02576 | 1283 ft | 131 kts | 182° |
| 2026-05-05 17:13 | 32.94542 | -97.02574 | 1172 ft | 131 kts | 182° |
| 2026-05-05 17:14 | 32.93611 | -97.02587 | 1012 ft | 137 kts | 181° |
| 2026-05-05 17:14 | 32.92963 | -97.02591 | 857 ft | 138 kts | 182° |
| 2026-05-05 17:14 | 32.92016 | -97.02595 | 679 ft | 136 kts | 185° |
| 2026-05-05 17:14 | 32.91094 | -97.02595 | 574 ft | 121 kts | 185° |
| 2026-05-05 17:15 | 32.90491 | -97.02606 | 582 ft | 53 kts | 179° |
| 2026-05-05 17:15 | 32.90165 | -97.02609 | 583 ft | 24 kts | 182° |
| 2026-05-05 17:15 | 32.89991 | -97.02645 | 581 ft | 26 kts | 199° |
| 2026-05-05 17:15 | 32.89833 | -97.02748 | 578 ft | 26 kts | 210° |
| 2026-05-05 17:16 | 32.89733 | -97.02803 | 581 ft | 15 kts | 181° |
| 2026-05-05 17:16 | 32.89625 | -97.02805 | 580 ft | 16 kts | 181° |
| 2026-05-05 17:16 | 32.89504 | -97.02806 | 579 ft | 17 kts | 177° |
| 2026-05-05 17:16 | 32.89410 | -97.02809 | 579 ft | 8 kts | 201° |
| 2026-05-05 17:17 | 32.89395 | -97.02865 | 579 ft | 9 kts | 269° |
| 2026-05-05 17:17 | 32.89394 | -97.02984 | 582 ft | 20 kts | 269° |
| 2026-05-05 17:17 | 32.89391 | -97.03161 | 588 ft | 21 kts | 268° |
| 2026-05-05 17:17 | 32.89402 | -97.03273 | 598 ft | 9 kts | 292° |
| 2026-05-05 17:18 | 32.89458 | -97.03318 | 599 ft | 14 kts | 1° |
| 2026-05-05 17:18 | 32.89607 | -97.03318 | 600 ft | 29 kts | 360° |
| 2026-05-05 17:18 | 32.89793 | -97.03318 | 599 ft | 23 kts | 0° |
| 2026-05-05 17:18 | 32.89966 | -97.03317 | 599 ft | 26 kts | 360° |
| 2026-05-05 17:19 | 32.90124 | -97.03318 | 599 ft | 23 kts | 359° |
| 2026-05-05 17:19 | 32.90275 | -97.03314 | 599 ft | 12 kts | 2° |
| 2026-05-05 17:19 | 32.90327 | -97.03329 | 599 ft | 3 kts | 306° |
| 2026-05-05 17:19 | 32.90330 | -97.03343 | 599 ft | 3 kts | 281° |
| 2026-05-05 17:20 | 32.90331 | -97.03388 | 600 ft | 8 kts | 271° |
| 2026-05-05 17:20 | 32.90312 | -97.03460 | 600 ft | 9 kts | 211° |
| 2026-05-05 17:20 | 32.90272 | -97.03500 | 600 ft | 6 kts | 257° |
| 2026-05-05 17:20 | 32.90283 | -97.03534 | 600 ft | 4 kts | 299° |
| 2026-05-05 17:21 | 32.90290 | -97.03550 | 600 ft | 0 kts | 295° |